sensor_id;sensor_type;location;lat;lon;timestamp;temperature;humidity
67005;HTU21D;53920;51.094;5.902;2022-08-01T00:00:44;21.39;73.44
67005;HTU21D;53920;51.094;5.902;2022-08-01T00:03:10;21.47;73.04
67005;HTU21D;53920;51.094;5.902;2022-08-01T00:05:37;21.52;72.99
67005;HTU21D;53920;51.094;5.902;2022-08-01T00:08:03;21.60;72.84
67005;HTU21D;53920;51.094;5.902;2022-08-01T00:10:29;21.67;72.61
67005;HTU21D;53920;51.094;5.902;2022-08-01T00:12:55;21.70;72.45
67005;HTU21D;53920;51.094;5.902;2022-08-01T00:15:21;21.78;72.32
67005;HTU21D;53920;51.094;5.902;2022-08-01T00:17:47;21.84;72.06
67005;HTU21D;53920;51.094;5.902;2022-08-01T00:20:14;21.90;71.94
67005;HTU21D;53920;51.094;5.902;2022-08-01T00:22:40;21.91;71.81
67005;HTU21D;53920;51.094;5.902;2022-08-01T00:25:06;21.91;71.89
67005;HTU21D;53920;51.094;5.902;2022-08-01T00:27:33;21.88;71.90
67005;HTU21D;53920;51.094;5.902;2022-08-01T00:29:58;21.82;72.12
67005;HTU21D;53920;51.094;5.902;2022-08-01T00:32:24;21.84;72.37
67005;HTU21D;53920;51.094;5.902;2022-08-01T00:34:51;21.84;72.35
67005;HTU21D;53920;51.094;5.902;2022-08-01T00:37:17;21.89;72.09
67005;HTU21D;53920;51.094;5.902;2022-08-01T00:39:43;21.89;72.06
67005;HTU21D;53920;51.094;5.902;2022-08-01T00:42:11;21.93;71.98
67005;HTU21D;53920;51.094;5.902;2022-08-01T00:44:38;21.96;71.84
67005;HTU21D;53920;51.094;5.902;2022-08-01T00:47:05;22.02;71.73
67005;HTU21D;53920;51.094;5.902;2022-08-01T00:49:32;22.04;71.77
67005;HTU21D;53920;51.094;5.902;2022-08-01T00:51:58;22.07;71.71
67005;HTU21D;53920;51.094;5.902;2022-08-01T00:54:25;22.08;71.55
67005;HTU21D;53920;51.094;5.902;2022-08-01T00:56:52;22.12;71.38
67005;HTU21D;53920;51.094;5.902;2022-08-01T00:59:21;22.13;71.06
67005;HTU21D;53920;51.094;5.902;2022-08-01T01:01:48;22.14;71.21
67005;HTU21D;53920;51.094;5.902;2022-08-01T01:04:14;22.14;71.21
67005;HTU21D;53920;51.094;5.902;2022-08-01T01:06:48;22.18;70.99
67005;HTU21D;53920;51.094;5.902;2022-08-01T01:12:50;22.18;70.57
67005;HTU21D;53920;51.094;5.902;2022-08-01T01:15:43;22.11;70.38
67005;HTU21D;53920;51.094;5.902;2022-08-01T01:18:22;22.05;70.35
67005;HTU21D;53920;51.094;5.902;2022-08-01T01:23:44;22.01;70.55
67005;HTU21D;53920;51.094;5.902;2022-08-01T01:29:06;22.09;70.65
67005;HTU21D;53920;51.094;5.902;2022-08-01T01:31:48;22.10;70.47
67005;HTU21D;53920;51.094;5.902;2022-08-01T01:34:18;22.14;70.44
67005;HTU21D;53920;51.094;5.902;2022-08-01T01:36:48;22.09;70.28
67005;HTU21D;53920;51.094;5.902;2022-08-01T01:39:16;22.07;70.24
67005;HTU21D;53920;51.094;5.902;2022-08-01T01:41:45;22.06;70.26
67005;HTU21D;53920;51.094;5.902;2022-08-01T01:44:13;22.07;70.33
67005;HTU21D;53920;51.094;5.902;2022-08-01T01:46:42;22.07;70.29
67005;HTU21D;53920;51.094;5.902;2022-08-01T01:49:09;22.07;70.42
67005;HTU21D;53920;51.094;5.902;2022-08-01T01:51:38;22.09;70.47
67005;HTU21D;53920;51.094;5.902;2022-08-01T01:54:08;22.10;70.44
67005;HTU21D;53920;51.094;5.902;2022-08-01T01:56:36;22.17;70.30
67005;HTU21D;53920;51.094;5.902;2022-08-01T01:59:19;22.17;70.17
67005;HTU21D;53920;51.094;5.902;2022-08-01T02:01:49;22.16;70.13
67005;HTU21D;53920;51.094;5.902;2022-08-01T02:04:17;22.14;70.23
67005;HTU21D;53920;51.094;5.902;2022-08-01T02:06:46;22.16;70.12
67005;HTU21D;53920;51.094;5.902;2022-08-01T02:09:17;22.14;70.14
67005;HTU21D;53920;51.094;5.902;2022-08-01T02:11:47;22.16;70.16
67005;HTU21D;53920;51.094;5.902;2022-08-01T02:14:14;22.16;70.05
67005;HTU21D;53920;51.094;5.902;2022-08-01T02:16:47;22.20;70.03
67005;HTU21D;53920;51.094;5.902;2022-08-01T02:19:14;22.17;70.10
67005;HTU21D;53920;51.094;5.902;2022-08-01T02:22:00;22.19;70.10
67005;HTU21D;53920;51.094;5.902;2022-08-01T02:24:49;22.17;70.05
67005;HTU21D;53920;51.094;5.902;2022-08-01T02:27:20;22.17;70.18
67005;HTU21D;53920;51.094;5.902;2022-08-01T02:29:57;22.19;70.23
67005;HTU21D;53920;51.094;5.902;2022-08-01T02:32:40;22.19;70.19
67005;HTU21D;53920;51.094;5.902;2022-08-01T02:35:11;22.16;70.18
67005;HTU21D;53920;51.094;5.902;2022-08-01T02:37:39;22.12;70.21
67005;HTU21D;53920;51.094;5.902;2022-08-01T02:40:09;22.14;70.19
67005;HTU21D;53920;51.094;5.902;2022-08-01T02:42:37;22.11;70.03
67005;HTU21D;53920;51.094;5.902;2022-08-01T02:45:06;22.09;70.03
67005;HTU21D;53920;51.094;5.902;2022-08-01T02:47:36;22.08;70.00
67005;HTU21D;53920;51.094;5.902;2022-08-01T02:50:05;22.06;70.03
67005;HTU21D;53920;51.094;5.902;2022-08-01T02:52:32;22.04;70.06
67005;HTU21D;53920;51.094;5.902;2022-08-01T02:55:01;21.99;70.14
67005;HTU21D;53920;51.094;5.902;2022-08-01T02:57:30;21.98;70.21
67005;HTU21D;53920;51.094;5.902;2022-08-01T02:59:58;21.99;70.13
67005;HTU21D;53920;51.094;5.902;2022-08-01T03:02:26;21.97;70.16
67005;HTU21D;53920;51.094;5.902;2022-08-01T03:04:54;21.96;70.16
67005;HTU21D;53920;51.094;5.902;2022-08-01T03:07:22;21.97;70.19
67005;HTU21D;53920;51.094;5.902;2022-08-01T03:09:51;21.98;70.12
67005;HTU21D;53920;51.094;5.902;2022-08-01T03:12:24;21.96;70.07
67005;HTU21D;53920;51.094;5.902;2022-08-01T03:14:55;21.96;70.07
67005;HTU21D;53920;51.094;5.902;2022-08-01T03:17:25;21.99;70.02
67005;HTU21D;53920;51.094;5.902;2022-08-01T03:19:53;21.98;69.97
67005;HTU21D;53920;51.094;5.902;2022-08-01T03:22:23;21.98;69.89
67005;HTU21D;53920;51.094;5.902;2022-08-01T03:24:52;21.99;69.97
67005;HTU21D;53920;51.094;5.902;2022-08-01T03:27:22;22.02;69.94
67005;HTU21D;53920;51.094;5.902;2022-08-01T03:29:51;22.01;69.90
67005;HTU21D;53920;51.094;5.902;2022-08-01T03:32:19;21.99;69.96
67005;HTU21D;53920;51.094;5.902;2022-08-01T03:34:47;22.01;70.00
67005;HTU21D;53920;51.094;5.902;2022-08-01T03:37:42;22.03;70.04
67005;HTU21D;53920;51.094;5.902;2022-08-01T03:40:25;22.07;69.97
67005;HTU21D;53920;51.094;5.902;2022-08-01T03:43:02;22.04;70.00
67005;HTU21D;53920;51.094;5.902;2022-08-01T03:45:40;22.07;70.03
67005;HTU21D;53920;51.094;5.902;2022-08-01T03:48:11;22.08;70.12
67005;HTU21D;53920;51.094;5.902;2022-08-01T03:50:42;22.08;70.26
67005;HTU21D;53920;51.094;5.902;2022-08-01T03:53:10;22.07;70.62
67005;HTU21D;53920;51.094;5.902;2022-08-01T03:55:39;22.04;71.06
67005;HTU21D;53920;51.094;5.902;2022-08-01T03:58:08;21.93;71.19
67005;HTU21D;53920;51.094;5.902;2022-08-01T04:00:36;21.78;71.58
67005;HTU21D;53920;51.094;5.902;2022-08-01T04:03:06;21.64;72.18
67005;HTU21D;53920;51.094;5.902;2022-08-01T04:05:33;21.61;72.54
67005;HTU21D;53920;51.094;5.902;2022-08-01T04:07:59;21.61;72.61
67005;HTU21D;53920;51.094;5.902;2022-08-01T04:10:28;21.64;72.87
67005;HTU21D;53920;51.094;5.902;2022-08-01T04:12:54;21.69;72.69
67005;HTU21D;53920;51.094;5.902;2022-08-01T04:15:21;21.64;72.61
67005;HTU21D;53920;51.094;5.902;2022-08-01T04:17:47;21.61;72.76
67005;HTU21D;53920;51.094;5.902;2022-08-01T04:20:14;21.55;72.91
67005;HTU21D;53920;51.094;5.902;2022-08-01T04:22:41;21.47;73.33
67005;HTU21D;53920;51.094;5.902;2022-08-01T04:25:15;21.40;73.51
67005;HTU21D;53920;51.094;5.902;2022-08-01T04:27:48;21.28;74.15
67005;HTU21D;53920;51.094;5.902;2022-08-01T04:30:18;21.15;74.92
67005;HTU21D;53920;51.094;5.902;2022-08-01T04:32:46;21.04;75.63
67005;HTU21D;53920;51.094;5.902;2022-08-01T04:35:16;20.99;76.01
67005;HTU21D;53920;51.094;5.902;2022-08-01T04:37:46;20.99;76.43
67005;HTU21D;53920;51.094;5.902;2022-08-01T04:40:14;21.05;76.41
67005;HTU21D;53920;51.094;5.902;2022-08-01T04:42:42;21.11;76.51
67005;HTU21D;53920;51.094;5.902;2022-08-01T04:45:09;21.18;76.29
67005;HTU21D;53920;51.094;5.902;2022-08-01T04:47:36;21.24;76.08
67005;HTU21D;53920;51.094;5.902;2022-08-01T04:50:07;21.28;75.69
67005;HTU21D;53920;51.094;5.902;2022-08-01T04:52:35;21.32;75.47
67005;HTU21D;53920;51.094;5.902;2022-08-01T04:55:03;21.34;75.23
67005;HTU21D;53920;51.094;5.902;2022-08-01T04:57:29;21.35;75.03
67005;HTU21D;53920;51.094;5.902;2022-08-01T04:59:56;21.38;74.94
67005;HTU21D;53920;51.094;5.902;2022-08-01T05:02:25;21.40;74.87
67005;HTU21D;53920;51.094;5.902;2022-08-01T05:04:53;21.43;74.78
67005;HTU21D;53920;51.094;5.902;2022-08-01T05:07:21;21.49;74.67
67005;HTU21D;53920;51.094;5.902;2022-08-01T05:09:47;21.59;74.87
67005;HTU21D;53920;51.094;5.902;2022-08-01T05:12:13;21.67;74.54
67005;HTU21D;53920;51.094;5.902;2022-08-01T05:14:40;21.74;74.42
67005;HTU21D;53920;51.094;5.902;2022-08-01T05:17:07;21.79;74.28
67005;HTU21D;53920;51.094;5.902;2022-08-01T05:19:35;21.87;74.00
67005;HTU21D;53920;51.094;5.902;2022-08-01T05:22:04;21.97;73.70
67005;HTU21D;53920;51.094;5.902;2022-08-01T05:24:37;22.11;73.37
67005;HTU21D;53920;51.094;5.902;2022-08-01T05:27:04;22.23;72.89
67005;HTU21D;53920;51.094;5.902;2022-08-01T05:29:30;22.31;72.45
67005;HTU21D;53920;51.094;5.902;2022-08-01T05:31:57;22.31;72.22
67005;HTU21D;53920;51.094;5.902;2022-08-01T05:34:24;22.31;72.27
67005;HTU21D;53920;51.094;5.902;2022-08-01T05:36:51;22.29;72.24
67005;HTU21D;53920;51.094;5.902;2022-08-01T05:39:17;22.28;72.56
67005;HTU21D;53920;51.094;5.902;2022-08-01T05:41:43;22.25;72.50
67005;HTU21D;53920;51.094;5.902;2022-08-01T05:44:10;22.28;72.56
67005;HTU21D;53920;51.094;5.902;2022-08-01T05:46:37;22.36;72.21
67005;HTU21D;53920;51.094;5.902;2022-08-01T05:49:04;22.39;72.02
67005;HTU21D;53920;51.094;5.902;2022-08-01T05:51:30;22.41;71.99
67005;HTU21D;53920;51.094;5.902;2022-08-01T05:53:57;22.40;71.87
67005;HTU21D;53920;51.094;5.902;2022-08-01T05:56:23;22.41;71.97
67005;HTU21D;53920;51.094;5.902;2022-08-01T05:58:50;22.43;72.11
67005;HTU21D;53920;51.094;5.902;2022-08-01T06:01:18;22.39;71.98
67005;HTU21D;53920;51.094;5.902;2022-08-01T06:03:44;22.41;72.00
67005;HTU21D;53920;51.094;5.902;2022-08-01T06:06:11;22.44;71.91
67005;HTU21D;53920;51.094;5.902;2022-08-01T06:08:40;22.49;71.90
67005;HTU21D;53920;51.094;5.902;2022-08-01T06:11:07;22.54;71.72
67005;HTU21D;53920;51.094;5.902;2022-08-01T06:13:33;22.62;71.48
67005;HTU21D;53920;51.094;5.902;2022-08-01T06:16:02;22.65;71.48
67005;HTU21D;53920;51.094;5.902;2022-08-01T06:18:30;22.69;71.28
67005;HTU21D;53920;51.094;5.902;2022-08-01T06:20:56;22.67;71.23
67005;HTU21D;53920;51.094;5.902;2022-08-01T06:23:24;22.62;71.03
67005;HTU21D;53920;51.094;5.902;2022-08-01T06:25:54;22.64;71.14
67005;HTU21D;53920;51.094;5.902;2022-08-01T06:28:26;22.73;70.77
67005;HTU21D;53920;51.094;5.902;2022-08-01T06:30:53;22.85;70.26
67005;HTU21D;53920;51.094;5.902;2022-08-01T06:33:19;22.96;69.65
67005;HTU21D;53920;51.094;5.902;2022-08-01T06:35:45;23.06;69.09
67005;HTU21D;53920;51.094;5.902;2022-08-01T06:38:11;23.08;68.89
67005;HTU21D;53920;51.094;5.902;2022-08-01T06:40:37;23.14;69.06
67005;HTU21D;53920;51.094;5.902;2022-08-01T06:43:04;23.15;68.78
67005;HTU21D;53920;51.094;5.902;2022-08-01T06:45:32;23.10;69.10
67005;HTU21D;53920;51.094;5.902;2022-08-01T06:47:58;23.26;68.94
67005;HTU21D;53920;51.094;5.902;2022-08-01T06:50:27;23.45;68.23
67005;HTU21D;53920;51.094;5.902;2022-08-01T06:52:53;23.51;68.15
67005;HTU21D;53920;51.094;5.902;2022-08-01T06:55:19;23.47;67.63
67005;HTU21D;53920;51.094;5.902;2022-08-01T06:57:47;23.42;67.94
67005;HTU21D;53920;51.094;5.902;2022-08-01T07:00:14;23.38;67.91
67005;HTU21D;53920;51.094;5.902;2022-08-01T07:02:42;23.29;67.86
67005;HTU21D;53920;51.094;5.902;2022-08-01T07:05:08;23.17;68.23
67005;HTU21D;53920;51.094;5.902;2022-08-01T07:07:35;23.09;68.61
67005;HTU21D;53920;51.094;5.902;2022-08-01T07:10:01;23.01;68.83
67005;HTU21D;53920;51.094;5.902;2022-08-01T07:12:27;22.96;69.20
67005;HTU21D;53920;51.094;5.902;2022-08-01T07:14:53;22.96;68.71
67005;HTU21D;53920;51.094;5.902;2022-08-01T07:17:19;23.00;67.78
67005;HTU21D;53920;51.094;5.902;2022-08-01T07:19:46;22.99;67.01
67005;HTU21D;53920;51.094;5.902;2022-08-01T07:22:13;22.95;67.03
67005;HTU21D;53920;51.094;5.902;2022-08-01T07:24:40;22.92;67.37
67005;HTU21D;53920;51.094;5.902;2022-08-01T07:27:07;22.95;67.27
67005;HTU21D;53920;51.094;5.902;2022-08-01T07:29:33;22.99;67.12
67005;HTU21D;53920;51.094;5.902;2022-08-01T07:32:00;23.00;66.81
67005;HTU21D;53920;51.094;5.902;2022-08-01T07:34:28;22.96;66.94
67005;HTU21D;53920;51.094;5.902;2022-08-01T07:36:54;22.93;66.99
67005;HTU21D;53920;51.094;5.902;2022-08-01T07:39:21;22.97;66.86
67005;HTU21D;53920;51.094;5.902;2022-08-01T07:41:47;23.01;66.83
67005;HTU21D;53920;51.094;5.902;2022-08-01T07:44:13;23.09;66.72
67005;HTU21D;53920;51.094;5.902;2022-08-01T07:46:40;23.11;66.62
67005;HTU21D;53920;51.094;5.902;2022-08-01T07:49:09;23.10;66.57
67005;HTU21D;53920;51.094;5.902;2022-08-01T07:51:35;23.12;66.78
67005;HTU21D;53920;51.094;5.902;2022-08-01T07:54:00;23.16;66.81
67005;HTU21D;53920;51.094;5.902;2022-08-01T07:56:26;23.17;66.68
67005;HTU21D;53920;51.094;5.902;2022-08-01T07:58:52;23.22;66.17
67005;HTU21D;53920;51.094;5.902;2022-08-01T08:01:19;23.26;66.04
67005;HTU21D;53920;51.094;5.902;2022-08-01T08:03:45;23.35;65.77
67005;HTU21D;53920;51.094;5.902;2022-08-01T08:06:11;23.40;65.33
67005;HTU21D;53920;51.094;5.902;2022-08-01T08:08:37;23.44;65.01
67005;HTU21D;53920;51.094;5.902;2022-08-01T08:11:03;23.53;64.53
67005;HTU21D;53920;51.094;5.902;2022-08-01T08:13:29;23.56;64.42
67005;HTU21D;53920;51.094;5.902;2022-08-01T08:15:55;23.62;64.43
67005;HTU21D;53920;51.094;5.902;2022-08-01T08:18:21;23.83;64.14
67005;HTU21D;53920;51.094;5.902;2022-08-01T08:20:47;24.12;63.37
67005;HTU21D;53920;51.094;5.902;2022-08-01T08:23:13;24.56;62.07
67005;HTU21D;53920;51.094;5.902;2022-08-01T08:25:57;24.77;60.67
67005;HTU21D;53920;51.094;5.902;2022-08-01T08:28:23;24.73;60.40
67005;HTU21D;53920;51.094;5.902;2022-08-01T08:30:49;24.66;60.54
67005;HTU21D;53920;51.094;5.902;2022-08-01T08:33:15;24.47;60.70
67005;HTU21D;53920;51.094;5.902;2022-08-01T08:35:41;24.53;60.66
67005;HTU21D;53920;51.094;5.902;2022-08-01T08:38:07;24.91;60.05
67005;HTU21D;53920;51.094;5.902;2022-08-01T08:40:35;25.37;58.35
67005;HTU21D;53920;51.094;5.902;2022-08-01T08:43:04;25.66;57.23
67005;HTU21D;53920;51.094;5.902;2022-08-01T08:45:32;26.02;56.13
67005;HTU21D;53920;51.094;5.902;2022-08-01T08:47:59;26.36;55.00
67005;HTU21D;53920;51.094;5.902;2022-08-01T08:50:26;27.98;50.68
67005;HTU21D;53920;51.094;5.902;2022-08-01T08:52:53;29.77;45.74
67005;HTU21D;53920;51.094;5.902;2022-08-01T08:55:20;31.00;42.84
67005;HTU21D;53920;51.094;5.902;2022-08-01T08:57:48;31.84;40.69
67005;HTU21D;53920;51.094;5.902;2022-08-01T09:00:14;31.87;40.07
67005;HTU21D;53920;51.094;5.902;2022-08-01T09:02:43;32.13;39.40
67005;HTU21D;53920;51.094;5.902;2022-08-01T09:05:10;32.57;38.57
67005;HTU21D;53920;51.094;5.902;2022-08-01T09:07:36;33.47;36.70
67005;HTU21D;53920;51.094;5.902;2022-08-01T09:10:04;33.99;35.56
67005;HTU21D;53920;51.094;5.902;2022-08-01T09:12:30;33.91;34.86
67005;HTU21D;53920;51.094;5.902;2022-08-01T09:14:56;34.06;34.34
67005;HTU21D;53920;51.094;5.902;2022-08-01T09:17:22;33.72;34.53
67005;HTU21D;53920;51.094;5.902;2022-08-01T09:19:54;32.74;36.04
67005;HTU21D;53920;51.094;5.902;2022-08-01T09:22:23;32.99;35.34
67005;HTU21D;53920;51.094;5.902;2022-08-01T09:27:35;34.31;33.18
67005;HTU21D;53920;51.094;5.902;2022-08-01T09:30:22;34.83;31.78
67005;HTU21D;53920;51.094;5.902;2022-08-01T09:32:59;33.87;33.49
67005;HTU21D;53920;51.094;5.902;2022-08-01T09:35:35;33.48;34.80
67005;HTU21D;53920;51.094;5.902;2022-08-01T09:38:14;33.56;34.52
67005;HTU21D;53920;51.094;5.902;2022-08-01T09:40:56;33.68;33.23
67005;HTU21D;53920;51.094;5.902;2022-08-01T09:43:27;33.70;33.06
67005;HTU21D;53920;51.094;5.902;2022-08-01T09:45:55;34.36;31.78
67005;HTU21D;53920;51.094;5.902;2022-08-01T09:48:22;34.77;30.79
67005;HTU21D;53920;51.094;5.902;2022-08-01T09:50:51;34.77;31.11
67005;HTU21D;53920;51.094;5.902;2022-08-01T09:53:19;35.13;30.64
67005;HTU21D;53920;51.094;5.902;2022-08-01T09:55:45;35.89;29.25
67005;HTU21D;53920;51.094;5.902;2022-08-01T09:58:12;36.64;26.86
67005;HTU21D;53920;51.094;5.902;2022-08-01T10:00:39;36.72;26.04
67005;HTU21D;53920;51.094;5.902;2022-08-01T10:03:23;35.03;28.88
67005;HTU21D;53920;51.094;5.902;2022-08-01T10:05:49;33.83;31.51
67005;HTU21D;53920;51.094;5.902;2022-08-01T10:08:17;33.48;32.57
67005;HTU21D;53920;51.094;5.902;2022-08-01T10:11:05;32.58;33.77
67005;HTU21D;53920;51.094;5.902;2022-08-01T10:13:32;31.52;35.61
67005;HTU21D;53920;51.094;5.902;2022-08-01T10:16:00;31.15;35.98
67005;HTU21D;53920;51.094;5.902;2022-08-01T10:18:31;31.94;34.99
67005;HTU21D;53920;51.094;5.902;2022-08-01T10:20:59;31.75;34.45
67005;HTU21D;53920;51.094;5.902;2022-08-01T10:23:26;31.50;35.36
67005;HTU21D;53920;51.094;5.902;2022-08-01T10:25:55;32.38;34.00
67005;HTU21D;53920;51.094;5.902;2022-08-01T10:28:22;33.17;32.14
67005;HTU21D;53920;51.094;5.902;2022-08-01T10:30:49;33.72;31.16
67005;HTU21D;53920;51.094;5.902;2022-08-01T10:33:15;33.88;30.37
67005;HTU21D;53920;51.094;5.902;2022-08-01T10:35:41;33.86;30.37
67005;HTU21D;53920;51.094;5.902;2022-08-01T10:38:08;34.32;29.52
67005;HTU21D;53920;51.094;5.902;2022-08-01T10:40:35;34.08;30.47
67005;HTU21D;53920;51.094;5.902;2022-08-01T10:43:02;33.29;31.78
67005;HTU21D;53920;51.094;5.902;2022-08-01T10:45:29;33.32;31.98
67005;HTU21D;53920;51.094;5.902;2022-08-01T10:50:27;33.21;32.43
67005;HTU21D;53920;51.094;5.902;2022-08-01T10:53:16;32.19;34.32
67005;HTU21D;53920;51.094;5.902;2022-08-01T10:58:31;32.54;34.34
67005;HTU21D;53920;51.094;5.902;2022-08-01T11:01:27;32.45;33.23
67005;HTU21D;53920;51.094;5.902;2022-08-01T11:09:02;32.55;32.64
67005;HTU21D;53920;51.094;5.902;2022-08-01T11:11:29;32.34;33.05
67005;HTU21D;53920;51.094;5.902;2022-08-01T11:16:31;33.51;31.43
67005;HTU21D;53920;51.094;5.902;2022-08-01T11:18:58;34.32;29.44
67005;HTU21D;53920;51.094;5.902;2022-08-01T11:27:21;34.38;27.44
67005;HTU21D;53920;51.094;5.902;2022-08-01T11:32:32;34.16;27.81
67005;HTU21D;53920;51.094;5.902;2022-08-01T11:34:58;34.47;27.55
67005;HTU21D;53920;51.094;5.902;2022-08-01T11:37:28;35.12;26.20
67005;HTU21D;53920;51.094;5.902;2022-08-01T11:40:14;35.44;24.62
67005;HTU21D;53920;51.094;5.902;2022-08-01T11:42:40;35.15;24.80
67005;HTU21D;53920;51.094;5.902;2022-08-01T11:45:07;35.01;24.97
67005;HTU21D;53920;51.094;5.902;2022-08-01T11:47:48;35.37;24.34
67005;HTU21D;53920;51.094;5.902;2022-08-01T11:50:30;35.27;24.39
67005;HTU21D;53920;51.094;5.902;2022-08-01T11:53:02;35.22;24.34
67005;HTU21D;53920;51.094;5.902;2022-08-01T11:55:29;35.55;24.31
67005;HTU21D;53920;51.094;5.902;2022-08-01T11:58:06;35.96;23.80
67005;HTU21D;53920;51.094;5.902;2022-08-01T12:00:33;36.12;23.14
67005;HTU21D;53920;51.094;5.902;2022-08-01T12:03:01;36.21;22.59
67005;HTU21D;53920;51.094;5.902;2022-08-01T12:05:29;36.23;21.92
67005;HTU21D;53920;51.094;5.902;2022-08-01T12:07:57;36.33;21.83
67005;HTU21D;53920;51.094;5.902;2022-08-01T12:10:29;36.06;21.82
67005;HTU21D;53920;51.094;5.902;2022-08-01T12:13:04;35.48;22.87
67005;HTU21D;53920;51.094;5.902;2022-08-01T12:15:36;34.68;23.77
67005;HTU21D;53920;51.094;5.902;2022-08-01T12:18:05;34.02;25.09
67005;HTU21D;53920;51.094;5.902;2022-08-01T12:20:34;33.34;26.35
67005;HTU21D;53920;51.094;5.902;2022-08-01T12:23:03;32.68;27.44
67005;HTU21D;53920;51.094;5.902;2022-08-01T12:25:31;32.10;28.16
67005;HTU21D;53920;51.094;5.902;2022-08-01T12:28:03;31.56;29.12
67005;HTU21D;53920;51.094;5.902;2022-08-01T12:30:31;31.20;30.13
67005;HTU21D;53920;51.094;5.902;2022-08-01T12:33:05;31.18;30.94
67005;HTU21D;53920;51.094;5.902;2022-08-01T12:35:35;31.55;30.38
67005;HTU21D;53920;51.094;5.902;2022-08-01T12:38:05;31.99;29.19
67005;HTU21D;53920;51.094;5.902;2022-08-01T12:40:36;32.27;28.57
67005;HTU21D;53920;51.094;5.902;2022-08-01T12:43:08;32.33;28.30
67005;HTU21D;53920;51.094;5.902;2022-08-01T12:45:42;32.34;27.97
67005;HTU21D;53920;51.094;5.902;2022-08-01T12:48:14;32.33;28.61
67005;HTU21D;53920;51.094;5.902;2022-08-01T12:50:43;32.19;28.97
67005;HTU21D;53920;51.094;5.902;2022-08-01T12:53:10;31.98;29.75
67005;HTU21D;53920;51.094;5.902;2022-08-01T12:55:55;31.40;30.19
67005;HTU21D;53920;51.094;5.902;2022-08-01T12:58:21;30.76;31.16
67005;HTU21D;53920;51.094;5.902;2022-08-01T13:00:49;30.28;32.19
67005;HTU21D;53920;51.094;5.902;2022-08-01T13:03:27;30.06;33.09
67005;HTU21D;53920;51.094;5.902;2022-08-01T13:05:54;29.96;33.34
67005;HTU21D;53920;51.094;5.902;2022-08-01T13:08:40;29.82;34.58
67005;HTU21D;53920;51.094;5.902;2022-08-01T13:11:12;29.98;36.40
67005;HTU21D;53920;51.094;5.902;2022-08-01T13:13:47;30.20;37.66
67005;HTU21D;53920;51.094;5.902;2022-08-01T13:16:16;30.36;38.38
67005;HTU21D;53920;51.094;5.902;2022-08-01T13:18:49;30.37;38.75
67005;HTU21D;53920;51.094;5.902;2022-08-01T13:26:57;30.49;39.68
67005;HTU21D;53920;51.094;5.902;2022-08-01T13:29:35;30.30;39.98
67005;HTU21D;53920;51.094;5.902;2022-08-01T13:32:13;30.37;40.21
67005;HTU21D;53920;51.094;5.902;2022-08-01T13:34:39;30.41;39.64
67005;HTU21D;53920;51.094;5.902;2022-08-01T13:37:05;30.63;39.65
67005;HTU21D;53920;51.094;5.902;2022-08-01T13:39:34;30.84;39.39
67005;HTU21D;53920;51.094;5.902;2022-08-01T13:42:14;30.94;39.23
67005;HTU21D;53920;51.094;5.902;2022-08-01T13:44:42;30.99;38.78
67005;HTU21D;53920;51.094;5.902;2022-08-01T13:47:11;31.06;38.79
67005;HTU21D;53920;51.094;5.902;2022-08-01T13:49:36;31.01;38.71
67005;HTU21D;53920;51.094;5.902;2022-08-01T13:52:03;30.92;38.70
67005;HTU21D;53920;51.094;5.902;2022-08-01T13:54:32;30.69;38.79
67005;HTU21D;53920;51.094;5.902;2022-08-01T13:56:58;30.72;39.25
67005;HTU21D;53920;51.094;5.902;2022-08-01T13:59:24;30.62;39.88
67005;HTU21D;53920;51.094;5.902;2022-08-01T14:01:50;30.68;39.70
67005;HTU21D;53920;51.094;5.902;2022-08-01T14:04:16;30.78;39.59
67005;HTU21D;53920;51.094;5.902;2022-08-01T14:06:42;30.80;38.99
67005;HTU21D;53920;51.094;5.902;2022-08-01T14:09:08;30.83;39.01
67005;HTU21D;53920;51.094;5.902;2022-08-01T14:11:35;30.97;39.16
67005;HTU21D;53920;51.094;5.902;2022-08-01T14:14:01;31.04;38.53
67005;HTU21D;53920;51.094;5.902;2022-08-01T14:16:28;30.90;38.12
67005;HTU21D;53920;51.094;5.902;2022-08-01T14:18:54;30.96;38.58
67005;HTU21D;53920;51.094;5.902;2022-08-01T14:21:19;31.08;37.59
67005;HTU21D;53920;51.094;5.902;2022-08-01T14:23:46;31.11;37.13
67005;HTU21D;53920;51.094;5.902;2022-08-01T14:26:11;31.22;36.98
67005;HTU21D;53920;51.094;5.902;2022-08-01T14:28:40;31.39;36.63
67005;HTU21D;53920;51.094;5.902;2022-08-01T14:31:06;31.34;36.47
67005;HTU21D;53920;51.094;5.902;2022-08-01T14:33:33;30.98;36.94
67005;HTU21D;53920;51.094;5.902;2022-08-01T14:35:59;30.81;37.45
67005;HTU21D;53920;51.094;5.902;2022-08-01T14:38:25;31.02;37.26
67005;HTU21D;53920;51.094;5.902;2022-08-01T14:40:51;31.24;36.87
67005;HTU21D;53920;51.094;5.902;2022-08-01T14:43:18;31.29;35.70
67005;HTU21D;53920;51.094;5.902;2022-08-01T14:45:44;31.46;35.42
67005;HTU21D;53920;51.094;5.902;2022-08-01T14:48:10;31.66;35.30
67005;HTU21D;53920;51.094;5.902;2022-08-01T14:50:36;31.85;34.86
67005;HTU21D;53920;51.094;5.902;2022-08-01T14:53:02;32.07;34.15
67005;HTU21D;53920;51.094;5.902;2022-08-01T14:55:28;32.10;33.95
67005;HTU21D;53920;51.094;5.902;2022-08-01T14:57:54;32.12;34.08
67005;HTU21D;53920;51.094;5.902;2022-08-01T15:00:20;31.99;33.80
67005;HTU21D;53920;51.094;5.902;2022-08-01T15:02:47;31.84;33.81
67005;HTU21D;53920;51.094;5.902;2022-08-01T15:05:15;31.67;33.96
67005;HTU21D;53920;51.094;5.902;2022-08-01T15:07:41;31.53;33.86
67005;HTU21D;53920;51.094;5.902;2022-08-01T15:10:07;31.34;34.25
67005;HTU21D;53920;51.094;5.902;2022-08-01T15:12:35;31.21;34.30
67005;HTU21D;53920;51.094;5.902;2022-08-01T15:15:01;31.13;34.47
67005;HTU21D;53920;51.094;5.902;2022-08-01T15:17:29;31.06;34.76
67005;HTU21D;53920;51.094;5.902;2022-08-01T15:19:58;30.98;34.37
67005;HTU21D;53920;51.094;5.902;2022-08-01T15:22:25;30.82;34.87
67005;HTU21D;53920;51.094;5.902;2022-08-01T15:24:53;30.75;35.28
67005;HTU21D;53920;51.094;5.902;2022-08-01T15:27:20;30.74;35.27
67005;HTU21D;53920;51.094;5.902;2022-08-01T15:29:47;30.75;35.31
67005;HTU21D;53920;51.094;5.902;2022-08-01T15:32:14;30.75;35.69
67005;HTU21D;53920;51.094;5.902;2022-08-01T15:34:41;30.70;35.98
67005;HTU21D;53920;51.094;5.902;2022-08-01T15:37:08;30.48;35.95
67005;HTU21D;53920;51.094;5.902;2022-08-01T15:39:35;30.33;35.89
67005;HTU21D;53920;51.094;5.902;2022-08-01T15:42:07;30.26;36.70
67005;HTU21D;53920;51.094;5.902;2022-08-01T15:44:34;30.25;36.62
67005;HTU21D;53920;51.094;5.902;2022-08-01T15:47:01;30.23;36.20
67005;HTU21D;53920;51.094;5.902;2022-08-01T15:49:28;30.13;36.59
67005;HTU21D;53920;51.094;5.902;2022-08-01T15:51:54;29.98;36.66
67005;HTU21D;53920;51.094;5.902;2022-08-01T15:54:20;29.81;37.24
67005;HTU21D;53920;51.094;5.902;2022-08-01T15:56:46;29.71;37.27
67005;HTU21D;53920;51.094;5.902;2022-08-01T15:59:13;29.62;37.11
67005;HTU21D;53920;51.094;5.902;2022-08-01T16:01:39;29.62;37.25
67005;HTU21D;53920;51.094;5.902;2022-08-01T16:04:06;29.62;37.32